Time;durP1;ratioP1;P1;durP2;ratioP2;P2;SDS_P1;SDS_P2;PMS_P1;PMS_P2;Temp;Humidity;BMP_temperature;BMP_pressure;BME280_temperature;BME280_humidity;BME280_pressure;Samples;Min_cycle;Max_cycle;Signal;HPM_P1;HPM_P2
2022/03/24 00:01:48;;;;;;;;;;;;;;;25.69;34.91;95149.53;4968028;28;7337;-52
2022/03/24 00:04:18;;;;;;;;;;;;;;;25.68;34.15;95153.56;4976266;28;9115;-51
2022/03/24 00:06:45;;;;;;;;;;;;;;;25.67;34.96;95145.75;4949940;28;7336;-48
2022/03/24 00:09:12;;;;;;;;;;;;;;;25.66;34.30;95161.56;4951277;28;7266;-48
2022/03/24 00:11:46;;;;;;;;;;;;;;;25.66;34.45;95147.78;4957620;28;7372;-49
2022/03/24 00:14:21;;;;;;;;;;;;;;;25.65;35.29;95151.78;4957835;28;9233;-50
2022/03/24 00:16:54;;;;;;;;;;;;;;;25.65;34.58;95146.25;4956632;28;7187;-51
2022/03/24 00:19:26;;;;;;;;;;;;;;;25.64;35.51;95153.03;4963356;28;7287;-49
2022/03/24 00:21:53;;;;;;;;;;;;;;;25.63;34.47;95151.50;4958191;28;8789;-52
2022/03/24 00:24:20;;;;;;;;;;;;;;;25.63;34.50;95151.50;4957573;28;7096;-49
2022/03/24 00:26:46;;;;;;;;;;;;;;;25.63;34.25;95148.00;4954448;28;7306;-50
2022/03/24 00:29:13;;;;;;;;;;;;;;;25.61;34.67;95147.75;4953536;28;8897;-51
2022/03/24 00:31:42;;;;;;;;;;;;;;;25.59;34.31;95142.72;4975324;28;8189;-53
2022/03/24 00:34:09;;;;;;;;;;;;;;;25.57;34.53;95147.97;4960135;28;7238;-52
2022/03/24 00:36:38;;;;;;;;;;;;;;;25.59;35.06;95141.97;4971699;28;7037;-51
2022/03/24 00:39:06;;;;;;;;;;;;;;;25.58;34.77;95143.97;4973232;28;9102;-50
2022/03/24 00:41:35;;;;;;;;;;;;;;;25.54;34.76;95146.19;4966206;28;6861;-52
2022/03/24 00:44:03;;;;;;;;;;;;;;;25.55;34.81;95136.69;4958009;28;7064;-48
2022/03/24 00:46:34;;;;;;;;;;;;;;;25.55;34.92;95133.94;4952995;28;9118;-51
2022/03/24 00:49:01;;;;;;;;;;;;;;;25.55;35.05;95133.19;4942035;28;9139;-50
2022/03/24 00:51:28;;;;;;;;;;;;;;;25.55;34.87;95131.19;4955417;28;7134;-50
2022/03/24 00:54:03;;;;;;;;;;;;;;;25.53;34.07;95128.19;4969776;28;8405;-50
2022/03/24 00:56:31;;;;;;;;;;;;;;;25.52;34.62;95132.16;4975516;28;9182;-48
2022/03/24 00:58:57;;;;;;;;;;;;;;;25.49;34.74;95126.91;4956818;28;7595;-51
2022/03/24 01:01:25;;;;;;;;;;;;;;;25.51;34.61;95124.41;4957638;28;9088;-51
2022/03/24 01:03:59;;;;;;;;;;;;;;;25.50;34.15;95131.91;4974330;28;8900;-48
2022/03/24 01:06:30;;;;;;;;;;;;;;;25.48;34.67;95126.13;4974898;28;7498;-49
2022/03/24 01:09:03;;;;;;;;;;;;;;;25.49;34.60;95122.13;4963153;28;7228;-49
2022/03/24 01:11:53;;;;;;;;;;;;;;;25.46;34.57;95119.59;4939258;28;7063;-48
2022/03/24 01:14:32;;;;;;;;;;;;;;;25.48;34.58;95126.13;4968748;28;8107;-49
2022/03/24 01:17:07;;;;;;;;;;;;;;;25.48;34.40;95120.63;4954166;28;7350;-51
2022/03/24 01:19:44;;;;;;;;;;;;;;;25.47;34.41;95115.63;4966668;28;8842;-51
2022/03/24 01:22:21;;;;;;;;;;;;;;;25.46;34.48;95116.84;4966209;28;7597;-49
2022/03/24 01:24:47;;;;;;;;;;;;;;;25.45;34.27;95115.38;4955398;28;9567;-49
2022/03/24 01:27:16;;;;;;;;;;;;;;;25.43;34.65;95113.09;4963617;28;8882;-50
2022/03/24 01:29:56;;;;;;;;;;;;;;;25.42;34.90;95117.09;4950029;28;6997;-51
2022/03/24 01:32:27;;;;;;;;;;;;;;;25.43;34.73;95118.59;4954093;28;7263;-48
2022/03/24 01:34:57;;;;;;;;;;;;;;;25.42;33.93;95112.31;4971426;28;9741;-50
2022/03/24 01:37:27;;;;;;;;;;;;;;;25.40;34.60;95101.00;4947173;28;7155;-51
2022/03/24 01:40:06;;;;;;;;;;;;;;;25.42;33.77;95112.31;4957495;28;7584;-50
2022/03/24 01:42:34;;;;;;;;;;;;;;;25.42;34.87;95109.56;4954826;28;7154;-48
2022/03/24 01:45:02;;;;;;;;;;;;;;;25.41;34.27;95110.03;4938204;28;7174;-50
2022/03/24 01:47:28;;;;;;;;;;;;;;;25.42;34.70;95114.34;4962565;28;7283;-49
2022/03/24 01:49:58;;;;;;;;;;;;;;;25.41;33.78;95107.28;4966890;28;9099;-52
2022/03/24 01:52:26;;;;;;;;;;;;;;;25.40;34.37;95108.53;4949684;28;9349;-49
2022/03/24 01:54:54;;;;;;;;;;;;;;;25.40;34.13;95111.31;4955812;28;7388;-48
2022/03/24 01:57:23;;;;;;;;;;;;;;;25.39;34.05;95107.03;4958966;28;7735;-52
2022/03/24 01:59:49;;;;;;;;;;;;;;;25.37;34.20;95104.78;4957912;28;7273;-52
2022/03/24 02:02:18;;;;;;;;;;;;;;;25.34;33.93;95099.47;4952671;28;9120;-51
2022/03/24 02:04:46;;;;;;;;;;;;;;;25.35;34.38;95104.50;4939466;28;9120;-48
2022/03/24 02:07:15;;;;;;;;;;;;;;;25.37;34.85;95093.00;4971033;28;7408;-48
2022/03/24 02:09:42;;;;;;;;;;;;;;;25.37;34.51;95099.25;4956936;28;6852;-48
2022/03/24 02:12:11;;;;;;;;;;;;;;;25.37;33.92;95104.78;4955295;28;8795;-49
2022/03/24 02:14:40;;;;;;;;;;;;;;;25.36;34.15;95100.50;4952208;28;9080;-49
2022/03/24 02:17:07;;;;;;;;;;;;;;;25.34;34.31;95104.97;4959324;28;8860;-48
2022/03/24 02:19:36;;;;;;;;;;;;;;;25.36;33.59;95097.75;4955232;28;8848;-49
2022/03/24 02:22:09;;;;;;;;;;;;;;;25.37;34.47;95109.53;4959910;28;7294;-49
2022/03/24 02:24:37;;;;;;;;;;;;;;;25.36;34.22;95108.00;4956515;28;8755;-48
2022/03/24 02:27:06;;;;;;;;;;;;;;;25.35;34.10;95106.50;4961659;28;7371;-50
2022/03/24 02:29:32;;;;;;;;;;;;;;;25.35;34.31;95099.00;4967906;28;9830;-48
2022/03/24 02:32:26;;;;;;;;;;;;;;;25.35;33.78;95107.25;4949066;28;6986;-48
2022/03/24 02:35:21;;;;;;;;;;;;;;;25.34;33.95;95103.00;4897900;29;7578;-49
2022/03/24 02:38:13;;;;;;;;;;;;;;;25.34;33.82;95099.47;4895076;29;7252;-49
2022/03/24 02:40:56;;;;;;;;;;;;;;;25.31;34.19;95098.47;4895798;29;9172;-51
2022/03/24 02:43:24;;;;;;;;;;;;;;;25.31;34.08;95100.47;4914913;29;7292;-48
2022/03/24 02:46:02;;;;;;;;;;;;;;;25.30;34.16;95098.94;4901190;29;9336;-48
2022/03/24 02:48:37;;;;;;;;;;;;;;;25.30;34.25;95101.72;4906816;29;7259;-50
2022/03/24 02:51:07;;;;;;;;;;;;;;;25.27;34.11;95097.94;4907048;29;8967;-49
2022/03/24 02:53:35;;;;;;;;;;;;;;;25.28;34.28;95093.94;4897873;29;9084;-51
2022/03/24 02:56:01;;;;;;;;;;;;;;;25.27;34.20;95097.94;4919602;29;9458;-50
2022/03/24 02:58:27;;;;;;;;;;;;;;;25.27;34.35;95097.19;4919482;29;7115;-50
2022/03/24 03:00:54;;;;;;;;;;;;;;;25.23;34.74;95086.41;4914835;29;7114;-51
2022/03/24 03:03:30;;;;;;;;;;;;;;;25.23;34.22;95096.66;4894277;29;9277;-53
2022/03/24 03:06:05;;;;;;;;;;;;;;;25.24;34.36;95101.69;4914401;29;7489;-50
2022/03/24 03:08:32;;;;;;;;;;;;;;;25.23;34.35;95091.91;4901288;29;8244;-49
2022/03/24 03:10:59;;;;;;;;;;;;;;;25.24;34.04;95096.19;4909453;28;9198;-49
2022/03/24 03:13:28;;;;;;;;;;;;;;;25.23;34.23;95093.91;4960854;28;8922;-50
2022/03/24 03:15:55;;;;;;;;;;;;;;;25.24;34.32;95100.94;4972464;28;7287;-50
2022/03/24 03:18:32;;;;;;;;;;;;;;;25.22;34.22;95092.41;4940629;28;9110;-48
2022/03/24 03:20:59;;;;;;;;;;;;;;;25.21;33.88;95097.16;4959200;28;7494;-49
2022/03/24 03:23:25;;;;;;;;;;;;;;;25.20;34.05;95098.41;4962475;28;7000;-48
2022/03/24 03:25:52;;;;;;;;;;;;;;;25.18;34.06;95100.91;4959602;28;9086;-48
2022/03/24 03:28:23;;;;;;;;;;;;;;;25.17;33.94;95093.13;4961608;28;8994;-48
2022/03/24 03:31:14;;;;;;;;;;;;;;;25.16;34.09;95100.66;4963011;28;7598;-51
2022/03/24 03:34:15;;;;;;;;;;;;;;;25.16;33.81;95102.63;4952597;28;7067;-48
2022/03/24 03:36:49;;;;;;;;;;;;;;;25.15;33.86;95098.38;4902904;29;7085;-49
2022/03/24 03:39:17;;;;;;;;;;;;;;;25.15;34.08;95101.13;4915630;29;9109;-50
2022/03/24 03:41:54;;;;;;;;;;;;;;;25.16;33.78;95102.63;4894441;29;8989;-51
2022/03/24 03:44:37;;;;;;;;;;;;;;;25.17;34.25;95106.88;4901757;29;9384;-51
2022/03/24 03:47:23;;;;;;;;;;;;;;;25.15;34.02;95101.88;4903767;29;7135;-50
2022/03/24 03:49:51;;;;;;;;;;;;;;;25.16;34.18;95103.41;4912854;29;9089;-51
2022/03/24 03:52:17;;;;;;;;;;;;;;;25.16;33.53;95099.88;4896244;29;7296;-50
2022/03/24 03:54:52;;;;;;;;;;;;;;;25.15;33.68;95101.88;4915511;29;8199;-49
2022/03/24 03:57:18;;;;;;;;;;;;;;;25.15;33.63;95106.63;4895250;29;9185;-49
2022/03/24 03:59:43;;;;;;;;;;;;;;;25.15;33.63;95099.13;4913685;29;9175;-47
2022/03/24 04:02:09;;;;;;;;;;;;;;;25.16;34.07;95099.88;4911876;29;8774;-49
2022/03/24 04:04:52;;;;;;;;;;;;;;;25.15;34.08;95101.88;4910215;29;8763;-49
2022/03/24 04:07:52;;;;;;;;;;;;;;;25.16;33.70;95100.66;4900425;29;9041;-51
2022/03/24 04:10:32;;;;;;;;;;;;;;;25.15;34.27;95092.84;4859570;29;9371;-49
2022/03/24 04:12:59;;;;;;;;;;;;;;;25.15;33.88;95101.88;4888537;29;9153;-51
2022/03/24 04:15:26;;;;;;;;;;;;;;;25.14;33.84;95096.88;4895216;29;7238;-48
2022/03/24 04:17:55;;;;;;;;;;;;;;;25.15;34.01;95103.88;4893041;29;6993;-49
2022/03/24 04:20:21;;;;;;;;;;;;;;;25.15;33.77;95103.88;4891960;29;7261;-49
2022/03/24 04:22:52;;;;;;;;;;;;;;;25.14;33.54;95096.88;4878636;29;9132;-47
2022/03/24 04:25:20;;;;;;;;;;;;;;;25.12;34.02;95102.13;4895715;29;7286;-50
2022/03/24 04:27:47;;;;;;;;;;;;;;;25.14;33.94;95102.38;4877341;29;7120;-50
2022/03/24 04:30:15;;;;;;;;;;;;;;;25.13;33.54;95100.84;4877827;29;8872;-50
2022/03/24 04:32:43;;;;;;;;;;;;;;;25.14;33.75;95094.84;4892849;29;9229;-51
2022/03/24 04:35:12;;;;;;;;;;;;;;;25.13;33.39;95090.59;4877114;29;7159;-49
2022/03/24 04:37:38;;;;;;;;;;;;;;;25.11;34.09;95084.06;4891489;29;7122;-52
2022/03/24 04:40:06;;;;;;;;;;;;;;;25.12;33.48;95088.34;4868146;29;9022;-51
2022/03/24 04:42:34;;;;;;;;;;;;;;;25.13;33.79;95095.34;4884912;29;9560;-49
2022/03/24 04:45:00;;;;;;;;;;;;;;;25.12;33.23;95096.59;4892049;29;7268;-52
2022/03/24 04:47:26;;;;;;;;;;;;;;;25.10;33.18;95105.34;4942640;28;7262;-51
2022/03/24 04:49:52;;;;;;;;;;;;;;;25.10;33.19;95096.34;4966825;28;9451;-50
2022/03/24 04:52:19;;;;;;;;;;;;;;;25.10;33.70;95096.34;4960353;28;7278;-52
2022/03/24 04:54:46;;;;;;;;;;;;;;;25.09;33.91;95103.09;4954457;28;7259;-52
2022/03/24 04:57:14;;;;;;;;;;;;;;;25.09;33.13;95108.59;4954428;28;7009;-49
2022/03/24 04:59:40;;;;;;;;;;;;;;;25.07;33.81;95105.56;4952697;28;9101;-49
2022/03/24 05:02:12;;;;;;;;;;;;;;;25.07;33.34;95111.06;4963513;28;8791;-49
2022/03/24 05:04:38;;;;;;;;;;;;;;;25.06;33.13;95106.81;4957959;28;7311;-47
2022/03/24 05:07:04;;;;;;;;;;;;;;;25.06;33.50;95113.06;4959807;28;9511;-51
2022/03/24 05:09:30;;;;;;;;;;;;;;;25.04;32.97;95115.56;4944661;28;9098;-51
2022/03/24 05:11:56;;;;;;;;;;;;;;;25.04;33.51;95109.28;4966950;28;9067;-52
2022/03/24 05:14:22;;;;;;;;;;;;;;;25.03;33.44;95116.81;4954272;28;9032;-50
2022/03/24 05:16:48;;;;;;;;;;;;;;;25.01;34.02;95113.03;4970518;28;7249;-47
2022/03/24 05:19:14;;;;;;;;;;;;;;;25.03;33.39;95118.81;4954146;28;9315;-52
2022/03/24 05:21:40;;;;;;;;;;;;;;;25.03;33.38;95119.56;4954901;28;9122;-50
2022/03/24 05:24:06;;;;;;;;;;;;;;;25.02;33.28;95126.31;4949738;28;7241;-47
2022/03/24 05:26:32;;;;;;;;;;;;;;;25.02;33.54;95123.56;4954075;28;7500;-50
2022/03/24 05:29:00;;;;;;;;;;;;;;;25.00;33.57;95126.03;4949324;28;7425;-48
2022/03/24 05:31:26;;;;;;;;;;;;;;;25.00;33.07;95126.03;4951037;28;9191;-49
2022/03/24 05:33:52;;;;;;;;;;;;;;;25.00;33.48;95128.78;4963486;28;8769;-47
2022/03/24 05:36:20;;;;;;;;;;;;;;;24.99;33.32;95126.53;4953518;28;7255;-51
2022/03/24 05:38:46;;;;;;;;;;;;;;;25.00;33.37;95128.03;4968508;28;8783;-49
2022/03/24 05:41:15;;;;;;;;;;;;;;;24.99;33.48;95124.53;4955332;28;7363;-49
2022/03/24 05:44:02;;;;;;;;;;;;;;;25.00;33.38;95139.03;4958429;28;7948;-48
2022/03/24 05:46:27;;;;;;;;;;;;;;;25.00;33.17;95133.53;4966048;28;9106;-50
2022/03/24 05:48:55;;;;;;;;;;;;;;;24.97;33.29;95131.78;4969545;28;9120;-48
2022/03/24 05:51:21;;;;;;;;;;;;;;;24.95;33.51;95140.50;4952272;28;7094;-47
2022/03/24 05:53:50;;;;;;;;;;;;;;;24.95;33.19;95134.25;4957436;28;9186;-50
2022/03/24 05:56:17;;;;;;;;;;;;;;;24.97;33.88;95129.75;4951814;28;9182;-50
2022/03/24 05:58:46;;;;;;;;;;;;;;;24.96;33.29;95131.03;4965166;28;7019;-48
2022/03/24 06:01:14;;;;;;;;;;;;;;;24.95;33.20;95129.50;4969139;28;7239;-50
2022/03/24 06:03:42;;;;;;;;;;;;;;;24.95;32.48;95134.25;4951807;28;7022;-47
2022/03/24 06:06:11;;;;;;;;;;;;;;;24.91;32.81;95117.97;4947416;28;9126;-49
2022/03/24 06:08:37;;;;;;;;;;;;;;;24.92;32.89;95130.50;4952717;28;9352;-46
2022/03/24 06:11:04;;;;;;;;;;;;;;;24.91;32.32;95139.22;4955378;28;7398;-48
2022/03/24 06:13:31;;;;;;;;;;;;;;;24.91;32.58;95139.22;4951135;28;8801;-50
2022/03/24 06:16:01;;;;;;;;;;;;;;;24.91;32.00;95141.97;4967437;28;7031;-46
2022/03/24 06:18:27;;;;;;;;;;;;;;;24.90;32.29;95135.72;4949807;28;9402;-49
2022/03/24 06:20:54;;;;;;;;;;;;;;;24.89;32.63;95139.72;4955114;28;7345;-48
2022/03/24 06:23:26;;;;;;;;;;;;;;;24.88;32.80;95137.47;4952447;28;7280;-49
2022/03/24 06:25:54;;;;;;;;;;;;;;;24.84;33.12;95137.66;4971856;28;9115;-50
2022/03/24 06:28:30;;;;;;;;;;;;;;;24.87;33.92;95138.69;4958022;28;8943;-48
2022/03/24 06:31:05;;;;;;;;;;;;;;;24.93;32.33;95144.97;4972660;28;9459;-50
2022/03/24 06:33:41;;;;;;;;;;;;;;;24.90;32.55;95144.00;4953202;28;9026;-50
2022/03/24 06:36:09;;;;;;;;;;;;;;;24.88;32.79;95140.94;4947561;28;7161;-49
2022/03/24 06:38:47;;;;;;;;;;;;;;;24.88;32.20;95142.97;4968806;28;7042;-51
2022/03/24 06:41:14;;;;;;;;;;;;;;;24.88;32.54;95143.69;4955530;28;7093;-49
2022/03/24 06:43:42;;;;;;;;;;;;;;;24.86;32.33;95151.69;4955907;28;7164;-48
2022/03/24 06:46:08;;;;;;;;;;;;;;;24.85;32.22;95146.69;4959701;28;8001;-48
2022/03/24 06:48:37;;;;;;;;;;;;;;;24.85;32.52;95141.19;4966862;28;7227;-50
2022/03/24 06:51:03;;;;;;;;;;;;;;;24.85;32.49;95146.69;4950153;28;7351;-48
2022/03/24 06:53:38;;;;;;;;;;;;;;;24.82;32.31;95147.63;4952921;28;7016;-51
2022/03/24 06:56:05;;;;;;;;;;;;;;;24.81;32.44;95148.91;4949845;28;8833;-47
2022/03/24 06:58:31;;;;;;;;;;;;;;;24.80;32.95;95145.38;4962157;28;9122;-47
2022/03/24 07:00:57;;;;;;;;;;;;;;;24.81;32.77;95146.16;4964172;28;9358;-51
2022/03/24 07:03:23;;;;;;;;;;;;;;;24.81;32.60;95146.16;4966019;28;9241;-49
2022/03/24 07:05:49;;;;;;;;;;;;;;;24.80;32.42;95147.38;4955724;28;8734;-48
2022/03/24 07:08:26;;;;;;;;;;;;;;;24.80;32.88;95141.88;4965791;28;8751;-47
2022/03/24 07:10:53;;;;;;;;;;;;;;;24.81;32.76;95140.66;4954170;28;7407;-48
2022/03/24 07:13:20;;;;;;;;;;;;;;;24.80;32.07;95144.63;4968443;28;7239;-52
2022/03/24 07:15:52;;;;;;;;;;;;;;;24.82;32.91;95140.16;4951516;28;7826;-47
2022/03/24 07:18:24;;;;;;;;;;;;;;;24.83;33.38;95136.16;4956058;28;9251;-51
2022/03/24 07:21:19;;;;;;;;;;;;;;;24.84;32.97;95143.16;4947086;28;9150;-50
2022/03/24 07:23:57;;;;;;;;;;;;;;;24.83;32.89;95147.19;4927487;29;7304;-50
2022/03/24 07:26:42;;;;;;;;;;;;;;;24.84;32.48;95142.44;4913247;29;9457;-51
2022/03/24 07:29:12;;;;;;;;;;;;;;;24.85;33.03;95141.19;4917306;29;7295;-49
2022/03/24 07:31:53;;;;;;;;;;;;;;;24.86;32.76;95142.69;4916504;29;7266;-49
2022/03/24 07:34:37;;;;;;;;;;;;;;;24.86;32.83;95142.69;4935183;29;7445;-49
2022/03/24 07:37:12;;;;;;;;;;;;;;;24.88;32.60;95146.44;4936183;28;9230;-47
2022/03/24 07:39:50;;;;;;;;;;;;;;;24.86;33.45;95153.72;4929239;28;7002;-50
2022/03/24 07:42:22;;;;;;;;;;;;;;;24.90;32.73;95151.47;4917491;29;7508;-49
2022/03/24 07:44:48;;;;;;;;;;;;;;;24.90;32.80;95154.22;4934560;29;9084;-52
2022/03/24 07:47:22;;;;;;;;;;;;;;;24.90;32.72;95154.22;4907846;29;9115;-50
2022/03/24 07:49:59;;;;;;;;;;;;;;;24.85;33.05;95141.19;4931301;29;7066;-50
2022/03/24 07:52:30;;;;;;;;;;;;;;;24.89;33.23;95152.72;4927399;29;9059;-49
2022/03/24 07:55:06;;;;;;;;;;;;;;;24.90;33.18;95159.75;4934421;29;9095;-52
2022/03/24 07:57:32;;;;;;;;;;;;;;;24.90;32.50;95151.47;4934623;29;7213;-49
2022/03/24 07:59:59;;;;;;;;;;;;;;;24.89;33.29;95155.47;4944404;28;9500;-51
2022/03/24 08:02:29;;;;;;;;;;;;;;;24.89;33.65;95161.72;4958313;28;8795;-52
2022/03/24 08:04:58;;;;;;;;;;;;;;;24.91;33.28;95158.47;4956856;28;7031;-48
2022/03/24 08:07:24;;;;;;;;;;;;;;;24.87;33.13;95160.69;4972404;28;7206;-48
2022/03/24 08:09:53;;;;;;;;;;;;;;;24.93;32.81;95164.25;4960963;28;8733;-51
2022/03/24 08:12:23;;;;;;;;;;;;;;;24.94;33.09;95168.53;4955614;28;7415;-48
2022/03/24 08:14:52;;;;;;;;;;;;;;;24.96;33.11;95168.78;4948589;28;9184;-48
2022/03/24 08:17:25;;;;;;;;;;;;;;;24.94;31.67;95168.53;4973321;28;8743;-50
2022/03/24 08:19:55;;;;;;;;;;;;;;;24.93;31.54;95175.25;4971591;28;9271;-48
2022/03/24 08:22:28;;;;;;;;;;;;;;;24.93;31.99;95183.50;4966989;28;9158;-49
2022/03/24 08:25:14;;;;;;;;;;;;;;;24.91;32.46;95172.25;4975257;28;7184;-48
2022/03/24 08:27:45;;;;;;;;;;;;;;;24.91;32.56;95166.72;4956486;28;7351;-48
2022/03/24 08:30:25;;;;;;;;;;;;;;;24.93;32.14;95178.00;4969474;28;9151;-47
2022/03/24 08:32:53;;;;;;;;;;;;;;;24.93;32.45;95167.75;4955441;28;9096;-49
2022/03/24 08:35:49;;;;;;;;;;;;;;;24.95;32.79;95172.78;4957111;28;9273;-51
2022/03/24 08:38:17;;;;;;;;;;;;;;;24.96;32.39;95171.53;4912658;29;8750;-49
2022/03/24 08:40:47;;;;;;;;;;;;;;;24.95;32.75;95162.53;4894998;29;9455;-50
2022/03/24 08:43:14;;;;;;;;;;;;;;;24.95;32.92;95172.78;4911748;29;8444;-49
2022/03/24 08:46:01;;;;;;;;;;;;;;;24.94;32.88;95163.78;4913054;29;7268;-52
2022/03/24 08:48:27;;;;;;;;;;;;;;;24.97;32.69;95170.31;4911269;29;6924;-47
2022/03/24 08:50:58;;;;;;;;;;;;;;;24.98;32.70;95161.56;4909551;29;9093;-49
2022/03/24 08:53:36;;;;;;;;;;;;;;;24.94;32.89;95160.28;4906783;29;9495;-47
2022/03/24 08:56:04;;;;;;;;;;;;;;;24.97;32.69;95164.81;4907531;29;7540;-48
2022/03/24 08:58:30;;;;;;;;;;;;;;;24.98;32.69;95172.56;4910955;29;9368;-48
2022/03/24 09:00:58;;;;;;;;;;;;;;;25.00;33.05;95166.56;4887016;29;7239;-48
2022/03/24 09:03:29;;;;;;;;;;;;;;;24.99;32.70;95165.06;4889047;29;8789;-49
2022/03/24 09:06:04;;;;;;;;;;;;;;;25.00;32.83;95169.31;4906806;29;7277;-48
2022/03/24 09:08:31;;;;;;;;;;;;;;;24.99;32.68;95165.06;4902940;29;9363;-49
2022/03/24 09:11:08;;;;;;;;;;;;;;;25.00;32.89;95170.06;4898971;29;6956;-50
2022/03/24 09:13:34;;;;;;;;;;;;;;;25.01;32.90;95177.06;4891672;28;7091;-50
2022/03/24 09:16:00;;;;;;;;;;;;;;;25.02;32.74;95172.34;4961723;28;8224;-50
2022/03/24 09:18:26;;;;;;;;;;;;;;;25.02;33.17;95169.59;4954627;28;9199;-51
2022/03/24 09:20:52;;;;;;;;;;;;;;;25.01;33.21;95170.84;4935488;28;9075;-51
2022/03/24 09:23:24;;;;;;;;;;;;;;;25.02;32.95;95180.59;4952100;28;8723;-50
2022/03/24 09:25:50;;;;;;;;;;;;;;;25.02;33.03;95175.84;4970234;28;7237;-52
2022/03/24 09:28:27;;;;;;;;;;;;;;;25.04;33.02;95169.84;4963032;28;8775;-50
2022/03/24 09:31:02;;;;;;;;;;;;;;;25.04;33.38;95173.34;4970916;28;7272;-47
2022/03/24 09:33:32;;;;;;;;;;;;;;;25.04;32.91;95169.84;4961919;28;7628;-50
2022/03/24 09:35:58;;;;;;;;;;;;;;;25.04;32.96;95176.13;4969801;28;7266;-49
2022/03/24 09:38:30;;;;;;;;;;;;;;;25.04;33.29;95170.59;4958571;28;8759;-49
2022/03/24 09:40:57;;;;;;;;;;;;;;;25.05;33.33;95166.63;4960568;28;7788;-48
2022/03/24 09:43:26;;;;;;;;;;;;;;;25.05;32.96;95171.38;4959120;28;7047;-52
2022/03/24 09:45:55;;;;;;;;;;;;;;;25.05;33.50;95169.38;4947506;28;9130;-49
2022/03/24 09:48:21;;;;;;;;;;;;;;;25.06;33.09;95165.38;4954313;28;9099;-47
2022/03/24 09:50:52;;;;;;;;;;;;;;;25.07;33.98;95163.38;4970022;28;7277;-51
2022/03/24 09:53:18;;;;;;;;;;;;;;;25.07;33.87;95166.13;4943176;28;7301;-51
2022/03/24 09:55:50;;;;;;;;;;;;;;;25.07;33.83;95166.88;4955904;28;6992;-50
2022/03/24 09:58:17;;;;;;;;;;;;;;;25.10;33.87;95174.16;4963932;28;7125;-50
2022/03/24 10:00:43;;;;;;;;;;;;;;;25.10;33.74;95165.16;4971519;28;9088;-48
2022/03/24 10:03:17;;;;;;;;;;;;;;;25.09;33.40;95164.41;4973705;28;8724;-52
2022/03/24 10:06:04;;;;;;;;;;;;;;;25.10;33.81;95163.16;4962637;28;9123;-50
2022/03/24 10:08:33;;;;;;;;;;;;;;;25.11;33.22;95163.91;4950309;28;7781;-51
2022/03/24 10:11:02;;;;;;;;;;;;;;;25.12;33.48;95157.91;4957016;28;8648;-49
2022/03/24 10:13:55;;;;;;;;;;;;;;;25.12;33.42;95152.41;4948968;28;7070;-48
2022/03/24 10:16:33;;;;;;;;;;;;;;;25.13;33.86;95150.41;4972209;28;7241;-51
2022/03/24 10:19:19;;;;;;;;;;;;;;;25.14;33.55;95154.69;4969032;28;9156;-50
2022/03/24 10:21:53;;;;;;;;;;;;;;;25.15;33.73;95145.91;4944494;28;7290;-49
2022/03/24 10:24:21;;;;;;;;;;;;;;;25.15;34.07;95156.16;4969164;28;8602;-48
2022/03/24 10:27:02;;;;;;;;;;;;;;;25.15;33.73;95145.91;4955671;28;9109;-50
2022/03/24 10:29:32;;;;;;;;;;;;;;;25.16;33.53;95144.69;4959285;28;8300;-49
2022/03/24 10:32:28;;;;;;;;;;;;;;;25.18;33.29;95150.47;4957250;28;7529;-50
2022/03/24 10:35:10;;;;;;;;;;;;;;;25.21;33.69;95134.94;4971238;28;8885;-49
2022/03/24 10:37:37;;;;;;;;;;;;;;;25.16;33.43;95139.19;4955478;28;9186;-51
2022/03/24 10:40:14;;;;;;;;;;;;;;;25.14;32.54;95146.41;4953040;28;8269;-51
2022/03/24 10:42:49;;;;;;;;;;;;;;;25.13;32.15;95139.41;4955543;28;9030;-50
2022/03/24 10:45:22;;;;;;;;;;;;;;;25.11;32.17;95130.88;4970910;28;7054;-51
2022/03/24 10:48:02;;;;;;;;;;;;;;;25.14;32.51;95141.66;4969927;28;7515;-52
2022/03/24 10:50:42;;;;;;;;;;;;;;;25.15;32.46;95134.91;4963211;28;7959;-51
2022/03/24 10:53:12;;;;;;;;;;;;;;;25.18;32.43;95138.69;4945186;28;9043;-50
2022/03/24 10:55:43;;;;;;;;;;;;;;;25.20;32.89;95139.72;4964159;28;9733;-51
2022/03/24 10:58:18;;;;;;;;;;;;;;;25.20;32.88;95133.44;4947034;28;9020;-49
2022/03/24 11:00:47;;;;;;;;;;;;;;;25.21;32.36;95135.69;4950414;28;9199;-50
2022/03/24 11:03:16;;;;;;;;;;;;;;;25.24;32.80;95131.22;4968931;28;7309;-52
2022/03/24 11:05:49;;;;;;;;;;;;;;;25.25;33.16;95129.97;4976104;28;9137;-51
2022/03/24 11:08:25;;;;;;;;;;;;;;;25.23;32.78;95124.19;4954120;28;7441;-51
2022/03/24 11:10:54;;;;;;;;;;;;;;;25.27;32.51;95121.97;4976152;28;7338;-49
2022/03/24 11:14:08;;;;;;;;;;;;;;;25.29;32.70;95125.72;4974846;28;7279;-53
2022/03/24 11:16:37;;;;;;;;;;;;;;;25.29;33.10;95127.75;4925842;29;8805;-51
2022/03/24 11:19:15;;;;;;;;;;;;;;;25.27;32.85;95121.97;4928886;29;9540;-51
2022/03/24 11:21:52;;;;;;;;;;;;;;;25.29;33.00;95125.72;4922947;29;9035;-51
2022/03/24 11:24:19;;;;;;;;;;;;;;;25.30;33.42;95121.75;4907456;29;7979;-54
2022/03/24 11:26:47;;;;;;;;;;;;;;;25.33;33.12;95117.25;4915455;29;7142;-53
2022/03/24 11:29:13;;;;;;;;;;;;;;;25.34;32.97;95110.50;4920390;29;9677;-54
2022/03/24 11:31:47;;;;;;;;;;;;;;;25.33;32.98;95111.75;4907045;29;8473;-51
2022/03/24 11:34:14;;;;;;;;;;;;;;;25.33;33.44;95115.25;4928668;29;7504;-53
2022/03/24 11:36:41;;;;;;;;;;;;;;;25.36;33.22;95113.50;4914885;29;7248;-53
2022/03/24 11:39:12;;;;;;;;;;;;;;;25.37;33.50;95112.28;4909979;29;7262;-53
2022/03/24 11:41:43;;;;;;;;;;;;;;;25.36;33.42;95102.50;4918923;29;9741;-51
2022/03/24 11:44:32;;;;;;;;;;;;;;;25.38;33.57;95105.53;4918241;29;7460;-53
2022/03/24 11:47:00;;;;;;;;;;;;;;;25.40;33.33;95103.03;4914153;29;9457;-53
2022/03/24 11:49:29;;;;;;;;;;;;;;;25.41;34.01;95097.03;4924985;29;9090;-53
2022/03/24 11:51:58;;;;;;;;;;;;;;;25.41;33.64;95097.03;4929671;28;9625;-54
2022/03/24 11:54:31;;;;;;;;;;;;;;;25.40;33.79;95095.50;4954358;28;9434;-53
2022/03/24 11:57:22;;;;;;;;;;;;;;;25.45;34.02;95093.34;4958603;28;7755;-52
2022/03/24 11:59:50;;;;;;;;;;;;;;;25.43;33.66;95085.53;4970973;28;8906;-52
2022/03/24 12:02:18;;;;;;;;;;;;;;;25.43;33.26;95082.78;4956960;28;9475;-52
2022/03/24 12:05:00;;;;;;;;;;;;;;;25.39;31.81;95073.97;4974368;28;9175;-52
2022/03/24 12:07:39;;;;;;;;;;;;;;;25.41;32.14;95072.25;4958186;28;8952;-53
2022/03/24 12:10:11;;;;;;;;;;;;;;;25.40;31.74;95081.00;4967528;28;7398;-54
2022/03/24 12:13:21;;;;;;;;;;;;;;;25.42;30.72;95078.53;4958008;28;8774;-53
2022/03/24 12:16:28;;;;;;;;;;;;;;;25.44;31.65;95081.56;4968918;28;9492;-52
2022/03/24 12:19:36;;;;;;;;;;;;;;;25.45;31.64;95074.78;4969968;28;7019;-52
2022/03/24 12:22:25;;;;;;;;;;;;;;;25.47;31.65;95064.03;4976490;28;9484;-52
2022/03/24 12:25:13;;;;;;;;;;;;;;;25.49;31.59;95067.03;4942208;28;9023;-52
2022/03/24 12:28:11;;;;;;;;;;;;;;;25.50;32.42;95062.28;4974836;28;9614;-53
2022/03/24 12:31:29;;;;;;;;;;;;;;;25.50;32.01;95052.03;4954948;28;7031;-53
2022/03/24 12:34:15;;;;;;;;;;;;;;;25.50;32.03;95052.03;4942769;28;7251;-52
2022/03/24 12:36:52;;;;;;;;;;;;;;;25.51;32.43;95047.28;4932883;29;9162;-51
2022/03/24 12:39:38;;;;;;;;;;;;;;;25.47;31.98;95050.25;4918516;29;9044;-52
2022/03/24 12:42:16;;;;;;;;;;;;;;;25.51;32.40;95053.56;4930049;29;9719;-51
2022/03/24 12:44:52;;;;;;;;;;;;;;;25.52;32.35;95040.50;4925868;29;9420;-51
2022/03/24 12:47:47;;;;;;;;;;;;;;;25.50;32.55;95030.00;4936007;28;9110;-49
2022/03/24 12:50:18;;;;;;;;;;;;;;;25.51;32.76;95039.03;4921463;29;7126;-52
2022/03/24 12:53:02;;;;;;;;;;;;;;;25.51;32.28;95034.28;4905771;29;7883;-51
2022/03/24 12:55:43;;;;;;;;;;;;;;;25.49;32.60;95031.22;4907642;29;6994;-52
2022/03/24 12:58:18;;;;;;;;;;;;;;;25.54;32.70;95030.50;4908012;29;9407;-52
2022/03/24 13:00:51;;;;;;;;;;;;;;;25.58;33.06;95035.78;4913995;28;8758;-55
2022/03/24 13:03:20;;;;;;;;;;;;;;;25.62;33.33;95026.03;4925962;28;7058;-50
2022/03/24 13:05:53;;;;;;;;;;;;;;;25.65;33.19;95027.03;4939496;28;7468;-50
2022/03/24 13:08:19;;;;;;;;;;;;;;;25.67;32.52;95028.06;4930086;29;8598;-53
2022/03/24 13:10:52;;;;;;;;;;;;;;;25.70;32.67;95023.56;4936719;28;8103;-53
2022/03/24 13:13:18;;;;;;;;;;;;;;;25.71;32.97;95023.06;4954615;28;7365;-50
2022/03/24 13:15:54;;;;;;;;;;;;;;;25.72;32.92;95013.53;4967549;28;7087;-53
2022/03/24 13:18:33;;;;;;;;;;;;;;;25.77;32.63;95015.56;4962190;28;9015;-49
2022/03/24 13:21:00;;;;;;;;;;;;;;;25.79;32.95;95023.34;4957258;28;7079;-48
2022/03/24 13:23:29;;;;;;;;;;;;;;;25.81;32.96;95015.31;4960271;28;9075;-52
2022/03/24 13:26:03;;;;;;;;;;;;;;;25.83;33.19;95010.81;4971316;28;9431;-52